createdAt,value
2019-05-23T00:00:29.988Z,0.00
2019-05-23T00:01:29.974Z,0.00
2019-05-23T00:02:29.971Z,0.00
2019-05-23T00:03:30.010Z,0.00
2019-05-23T00:04:29.949Z,0.00
2019-05-23T00:05:29.933Z,0.00
2019-05-23T00:06:29.929Z,0.00
2019-05-23T00:07:29.910Z,0.00
2019-05-23T00:08:29.904Z,0.00
2019-05-23T00:09:29.948Z,0.00
2019-05-23T00:10:29.879Z,0.00
2019-05-23T00:11:29.868Z,0.00
2019-05-23T00:12:29.862Z,0.00
2019-05-23T00:13:29.848Z,0.00
2019-05-23T00:14:30.085Z,0.00
2019-05-23T00:15:29.827Z,0.00
2019-05-23T00:16:29.814Z,0.00
2019-05-23T00:17:29.800Z,0.00
2019-05-23T00:18:29.791Z,0.00
2019-05-23T00:19:29.781Z,0.00
2019-05-23T00:20:29.821Z,0.00
2019-05-23T00:21:29.761Z,0.00
2019-05-23T00:22:29.756Z,0.00
2019-05-23T00:23:29.737Z,0.00
2019-05-23T00:24:29.731Z,0.00
2019-05-23T00:25:29.720Z,0.00
2019-05-23T00:26:29.752Z,5.62
2019-05-23T00:27:29.695Z,5.62
2019-05-23T00:28:29.685Z,5.62
2019-05-23T00:29:29.672Z,5.62
2019-05-23T00:30:29.665Z,5.62
2019-05-23T00:31:29.650Z,5.62
2019-05-23T00:34:29.781Z,5.62
2019-05-23T00:35:29.607Z,5.62
2019-05-23T00:36:29.598Z,5.62
2019-05-23T00:37:29.585Z,5.62
2019-05-23T00:38:29.574Z,5.62
2019-05-23T00:39:29.565Z,5.62
2019-05-23T00:40:29.599Z,5.62
2019-05-23T00:41:29.571Z,11.25
2019-05-23T00:42:29.533Z,11.25
2019-05-23T00:43:29.526Z,11.25
2019-05-23T00:44:29.511Z,11.25
2019-05-23T00:45:29.499Z,11.25
2019-05-23T00:46:29.537Z,11.25
2019-05-23T00:47:29.475Z,11.25
2019-05-23T00:48:29.465Z,11.25
2019-05-23T00:49:29.454Z,11.25
2019-05-23T00:50:29.445Z,11.25
2019-05-23T00:51:29.433Z,11.25
2019-05-23T00:52:29.574Z,16.87
2019-05-23T00:53:29.410Z,16.87
2019-05-23T00:54:29.400Z,16.87
2019-05-23T00:55:29.394Z,16.87
2019-05-23T00:56:29.379Z,16.87
2019-05-23T00:57:29.370Z,16.87
2019-05-23T00:58:29.411Z,16.87
2019-05-23T00:59:29.344Z,16.87
2019-05-23T01:00:29.337Z,16.87
2019-05-23T01:01:29.327Z,16.87
2019-05-23T01:02:29.315Z,16.87
2019-05-23T01:03:29.528Z,22.50
2019-05-23T01:04:29.341Z,22.50
2019-05-23T01:05:29.281Z,22.50
2019-05-23T01:06:29.271Z,22.50
2019-05-23T01:07:29.322Z,22.50
2019-05-23T01:08:29.249Z,22.50
2019-05-23T01:09:29.239Z,22.50
2019-05-23T01:10:29.275Z,22.50
2019-05-23T01:11:29.215Z,28.12
2019-05-23T01:12:29.204Z,28.12
2019-05-23T01:13:29.193Z,28.12
2019-05-23T01:14:29.183Z,28.12
2019-05-23T01:15:29.173Z,28.12
2019-05-23T01:16:29.260Z,28.12
2019-05-23T01:17:29.149Z,28.12
2019-05-23T01:18:29.138Z,28.12
2019-05-23T01:19:29.130Z,33.75
2019-05-23T01:20:29.118Z,33.75
2019-05-23T01:21:29.142Z,33.75
2019-05-23T01:22:29.198Z,33.75
2019-05-23T01:23:29.085Z,33.75
2019-05-23T01:24:29.079Z,33.75
2019-05-23T01:25:29.063Z,33.75
2019-05-23T01:26:29.053Z,33.75
2019-05-23T01:27:29.043Z,33.75
2019-05-23T01:28:29.085Z,39.37
2019-05-23T01:29:37.377Z,39.37
2019-05-23T01:30:53.822Z,39.37
2019-05-23T01:31:53.812Z,39.37
2019-05-23T01:32:53.800Z,39.37
2019-05-23T01:33:53.841Z,39.37
2019-05-23T01:34:53.777Z,39.37
2019-05-23T01:35:53.768Z,45.00
2019-05-23T01:36:53.756Z,45.00
2019-05-23T01:37:53.776Z,45.00
2019-05-23T01:38:53.737Z,45.00
2019-05-23T01:39:53.776Z,45.00
2019-05-23T01:40:53.714Z,45.00
2019-05-23T01:41:53.789Z,45.00
2019-05-23T01:42:53.692Z,50.62
2019-05-23T01:43:53.680Z,50.62
2019-05-23T01:44:53.670Z,50.62
2019-05-23T01:45:53.758Z,50.62
2019-05-23T01:46:53.645Z,50.62
2019-05-23T01:47:53.636Z,50.62
2019-05-23T01:48:53.625Z,56.25
2019-05-23T01:49:53.615Z,56.25
2019-05-23T01:50:53.608Z,56.25
2019-05-23T01:51:53.746Z,56.25
2019-05-23T01:52:53.585Z,61.87
2019-05-23T01:53:53.571Z,61.87
2019-05-23T01:54:53.564Z,61.87
2019-05-23T01:55:53.552Z,61.87
2019-05-23T01:56:53.542Z,61.87
2019-05-23T01:57:53.577Z,61.87
2019-05-23T01:58:53.517Z,61.87
2019-05-23T02:00:08.262Z,67.50
2019-05-23T02:00:54.593Z,67.50
2019-05-23T02:01:53.486Z,67.50
2019-05-23T02:02:53.476Z,67.50
2019-05-23T02:03:53.513Z,67.50
2019-05-23T02:04:53.464Z,73.12
2019-05-23T02:05:53.442Z,73.12
2019-05-23T02:06:53.432Z,73.12
2019-05-23T02:07:53.421Z,73.12
2019-05-23T02:08:53.410Z,73.12
2019-05-23T02:09:53.799Z,78.75
2019-05-23T02:10:53.387Z,78.75
2019-05-23T02:11:53.384Z,84.37
2019-05-23T02:12:53.367Z,84.37
2019-05-23T02:13:53.355Z,84.37
2019-05-23T02:14:53.348Z,90.00
2019-05-23T02:15:53.383Z,90.00
2019-05-23T02:16:53.325Z,95.62
2019-05-23T02:17:53.312Z,95.62
2019-05-23T02:18:53.305Z,101.25
2019-05-23T02:19:53.292Z,101.25
2019-05-23T02:20:53.280Z,106.87
2019-05-23T02:21:53.320Z,106.87
2019-05-23T02:22:53.257Z,112.50
2019-05-23T02:23:53.245Z,112.50
2019-05-23T02:24:53.238Z,118.12
2019-05-23T02:25:53.222Z,118.12
2019-05-23T02:26:53.213Z,123.75
2019-05-23T02:27:53.358Z,123.75
2019-05-23T02:28:53.193Z,123.75
2019-05-23T02:29:53.185Z,129.37
2019-05-23T02:30:53.172Z,129.37
2019-05-23T02:31:53.159Z,135.00
2019-05-23T02:32:53.148Z,135.00
2019-05-23T02:33:53.193Z,135.00
2019-05-23T02:34:53.130Z,140.62
2019-05-23T02:35:53.114Z,140.62
2019-05-23T02:36:53.105Z,146.25
2019-05-23T02:37:53.096Z,151.87
2019-05-23T02:38:53.082Z,157.50
2019-05-23T02:40:53.114Z,168.75
2019-05-23T02:41:53.059Z,174.37
2019-05-23T02:42:53.044Z,180.00
2019-05-23T02:43:53.027Z,180.00
2019-05-23T02:44:53.017Z,185.62
2019-05-23T02:45:53.043Z,191.25
2019-05-23T02:46:53.147Z,191.25
2019-05-23T02:47:52.985Z,196.87
2019-05-23T02:48:52.977Z,196.87
2019-05-23T02:49:52.964Z,202.50
2019-05-23T02:50:52.953Z,208.12
2019-05-23T02:51:52.945Z,208.12
2019-05-23T02:52:53.032Z,208.12
2019-05-23T02:53:52.922Z,213.75
2019-05-23T02:54:52.911Z,225.00
2019-05-23T02:55:52.903Z,230.62
2019-05-23T02:56:52.890Z,236.25
2019-05-23T02:57:52.941Z,236.25
2019-05-23T02:58:52.868Z,241.87
2019-05-23T02:59:52.862Z,253.12
2019-05-23T03:00:55.297Z,258.75
2019-05-23T03:01:52.841Z,264.37
2019-05-23T03:02:52.824Z,270.00
2019-05-23T03:03:52.916Z,270.00
2019-05-23T03:04:52.808Z,270.00
2019-05-23T03:05:52.799Z,264.37
2019-05-23T03:06:52.797Z,270.00
2019-05-23T03:07:52.806Z,264.37
2019-05-23T03:08:53.162Z,270.00
2019-05-23T03:09:52.755Z,270.00
2019-05-23T03:10:52.760Z,275.62
2019-05-23T03:11:52.733Z,281.25
2019-05-23T03:12:52.723Z,286.87
2019-05-23T03:13:52.715Z,292.50
2019-05-23T03:14:52.755Z,292.50
2019-05-23T03:15:52.694Z,281.25
2019-05-23T03:16:52.681Z,275.62
2019-05-23T03:17:52.710Z,275.62
2019-05-23T03:18:52.659Z,275.62
2019-05-23T03:20:52.696Z,270.00
2019-05-23T03:21:52.632Z,275.62
2019-05-23T03:22:52.617Z,275.62
2019-05-23T03:23:52.608Z,270.00
2019-05-23T03:24:52.600Z,264.37
2019-05-23T03:25:52.637Z,264.37
2019-05-23T03:26:52.580Z,264.37
2019-05-23T03:27:52.568Z,270.00
2019-05-23T03:28:52.554Z,270.00
2019-05-23T03:29:52.544Z,275.62
2019-05-23T03:30:52.533Z,286.87
2019-05-23T03:32:52.689Z,298.12
2019-05-23T03:33:52.527Z,309.37
2019-05-23T03:34:52.491Z,320.62
2019-05-23T03:35:52.480Z,326.25
2019-05-23T03:36:52.468Z,331.87
2019-05-23T03:37:52.459Z,343.12
2019-05-23T03:38:52.494Z,343.12
2019-05-23T03:39:52.433Z,343.12
2019-05-23T03:40:52.430Z,343.12
2019-05-23T03:41:52.417Z,337.50
2019-05-23T03:42:52.403Z,331.87
2019-05-23T03:43:52.394Z,326.25
2019-05-23T03:44:52.432Z,320.62
2019-05-23T03:45:52.372Z,315.00
2019-05-23T03:46:52.361Z,315.00
2019-05-23T03:47:52.348Z,315.00
2019-05-23T03:48:52.338Z,315.00
2019-05-23T03:49:52.325Z,315.00
2019-05-23T03:50:52.476Z,315.00
2019-05-23T03:51:52.305Z,315.00
2019-05-23T03:52:52.297Z,315.00
2019-05-23T03:53:52.283Z,315.00
2019-05-23T03:54:52.270Z,309.37
2019-05-23T03:55:52.264Z,309.37
2019-05-23T03:56:52.301Z,303.75
2019-05-23T03:57:52.238Z,303.75
2019-05-23T03:58:52.228Z,298.12
2019-05-23T03:59:52.216Z,298.12
2019-05-23T04:00:52.207Z,298.12
2019-05-23T04:01:52.196Z,298.12
2019-05-23T04:02:52.253Z,298.12
2019-05-23T04:03:52.180Z,303.75
2019-05-23T04:04:52.162Z,303.75
2019-05-23T04:05:52.152Z,309.37
2019-05-23T04:06:52.141Z,315.00
2019-05-23T04:07:52.131Z,315.00
2019-05-23T04:08:52.269Z,315.00
2019-05-23T04:09:52.116Z,320.62
2019-05-23T04:10:52.535Z,326.25
2019-05-23T04:11:52.088Z,337.50
2019-05-23T04:12:52.073Z,343.12
2019-05-23T04:13:52.064Z,337.50
2019-05-23T04:14:52.104Z,343.12
2019-05-23T04:15:52.041Z,343.12
2019-05-23T04:16:52.038Z,354.37
2019-05-23T04:17:52.025Z,348.75
2019-05-23T04:18:52.014Z,354.37
2019-05-23T04:19:51.997Z,354.37
2019-05-23T04:20:52.042Z,354.37
2019-05-23T04:21:51.981Z,354.37
2019-05-23T04:22:51.964Z,360.00
2019-05-23T04:23:51.955Z,365.62
2019-05-23T04:24:51.944Z,365.62
2019-05-23T04:25:52.009Z,371.25
2019-05-23T04:26:52.074Z,365.62
2019-05-23T04:27:51.909Z,365.62
2019-05-23T04:28:51.900Z,365.62
2019-05-23T04:29:51.888Z,371.25
2019-05-23T04:30:51.886Z,371.25
2019-05-23T04:32:06.903Z,365.62
2019-05-23T04:33:16.773Z,365.62
2019-05-23T04:34:16.758Z,360.00
2019-05-23T04:35:16.746Z,360.00
2019-05-23T04:36:16.737Z,354.37
2019-05-23T04:37:16.727Z,354.37
2019-05-23T04:38:16.769Z,348.75
2019-05-23T04:39:16.715Z,343.12
2019-05-23T04:40:16.692Z,337.50
2019-05-23T04:41:16.686Z,331.87
2019-05-23T04:42:16.676Z,331.87
2019-05-23T04:43:16.661Z,326.25
2019-05-23T04:44:16.800Z,331.87
2019-05-23T04:45:16.638Z,331.87
2019-05-23T04:46:16.633Z,337.50
2019-05-23T04:47:16.618Z,337.50
2019-05-23T04:48:16.606Z,337.50
2019-05-23T04:49:16.597Z,337.50
2019-05-23T04:50:16.634Z,331.87
2019-05-23T04:51:16.573Z,331.87
2019-05-23T04:52:16.573Z,331.87
2019-05-23T04:53:16.558Z,331.87
2019-05-23T04:54:16.540Z,331.87
2019-05-23T04:55:16.531Z,326.25
2019-05-23T04:56:16.570Z,326.25
2019-05-23T04:57:16.508Z,326.25
2019-05-23T04:58:16.500Z,320.62
2019-05-23T04:59:16.487Z,320.62
2019-05-23T05:00:16.474Z,320.62
2019-05-23T05:01:16.466Z,320.62
2019-05-23T05:03:18.082Z,320.62
2019-05-23T05:04:16.435Z,320.62
2019-05-23T05:05:16.425Z,320.62
2019-05-23T05:06:16.414Z,326.25
2019-05-23T05:07:16.405Z,320.62
2019-05-23T05:08:16.574Z,326.25
2019-05-23T05:09:16.480Z,326.25
2019-05-23T05:10:16.371Z,326.25
2019-05-23T05:11:16.358Z,331.87
2019-05-23T05:12:16.348Z,331.87
2019-05-23T05:13:16.337Z,337.50
2019-05-23T05:14:16.334Z,337.50
2019-05-23T05:15:16.366Z,343.12
2019-05-23T05:16:16.304Z,348.75
2019-05-23T05:17:16.295Z,348.75
2019-05-23T05:18:16.294Z,354.37
2019-05-23T05:19:16.287Z,354.37
2019-05-23T05:20:16.814Z,365.62
2019-05-23T05:21:16.258Z,365.62
2019-05-23T05:22:16.244Z,365.62
2019-05-23T05:23:16.234Z,365.62
2019-05-23T05:24:16.222Z,371.25
2019-05-23T05:25:16.210Z,371.25
2019-05-23T05:26:16.253Z,376.87
2019-05-23T05:27:16.191Z,382.50
2019-05-23T05:28:16.182Z,382.50
2019-05-23T05:29:16.171Z,388.12
2019-05-23T05:30:16.160Z,393.75
2019-05-23T05:31:16.153Z,399.37
2019-05-23T05:32:16.269Z,405.00
2019-05-23T05:33:16.130Z,405.00
2019-05-23T05:34:16.120Z,410.62
2019-05-23T05:35:16.113Z,416.25
2019-05-23T05:36:16.139Z,416.25
2019-05-23T05:37:16.107Z,421.87
2019-05-23T05:38:16.325Z,427.50
2019-05-23T05:39:16.066Z,427.50
2019-05-23T05:40:16.055Z,438.75
2019-05-23T05:41:16.043Z,433.12
2019-05-23T05:42:16.035Z,444.37
2019-05-23T05:43:16.021Z,438.75
2019-05-23T05:44:16.110Z,444.37
2019-05-23T05:45:16.000Z,444.37
2019-05-23T05:46:15.990Z,444.37
2019-05-23T05:47:15.982Z,450.00
2019-05-23T05:48:15.969Z,450.00
2019-05-23T05:49:15.959Z,450.00
2019-05-23T05:50:15.999Z,450.00
2019-05-23T05:51:15.936Z,450.00
2019-05-23T05:52:15.928Z,450.00
2019-05-23T05:53:15.917Z,455.62
2019-05-23T05:54:15.908Z,455.62
2019-05-23T05:55:15.900Z,455.62
2019-05-23T05:56:16.047Z,455.62
2019-05-23T05:57:15.876Z,455.62
2019-05-23T05:58:15.865Z,461.25
2019-05-23T05:59:15.861Z,461.25
2019-05-23T06:00:15.867Z,461.25
2019-05-23T06:01:31.198Z,461.25
2019-05-23T06:02:17.925Z,455.62
2019-05-23T06:03:15.822Z,455.62
2019-05-23T06:04:15.803Z,450.00
2019-05-23T06:05:15.800Z,450.00
2019-05-23T06:06:15.787Z,444.37
2019-05-23T06:07:15.771Z,444.37
2019-05-23T06:08:15.813Z,444.37
2019-05-23T06:09:15.751Z,444.37
2019-05-23T06:10:15.742Z,444.37
2019-05-23T06:11:15.733Z,444.37
2019-05-23T06:12:15.720Z,444.37
2019-05-23T06:13:15.709Z,450.00
2019-05-23T06:14:15.877Z,450.00
2019-05-23T06:15:15.692Z,455.62
2019-05-23T06:16:15.684Z,461.25
2019-05-23T06:17:15.668Z,466.87
2019-05-23T06:18:15.659Z,466.87
2019-05-23T06:19:15.646Z,472.50
2019-05-23T06:20:15.736Z,472.50
2019-05-23T06:21:15.626Z,478.12
2019-05-23T06:22:15.616Z,483.75
2019-05-23T06:23:15.609Z,483.75
2019-05-23T06:24:15.609Z,495.00
2019-05-23T06:25:15.609Z,489.37
2019-05-23T06:26:15.628Z,495.00
2019-05-23T06:27:15.566Z,495.00
2019-05-23T06:28:15.580Z,495.00
2019-05-23T06:29:15.559Z,495.00
2019-05-23T06:30:15.533Z,495.00
2019-05-23T06:31:15.522Z,495.00
2019-05-23T06:32:15.794Z,495.00
2019-05-23T06:33:23.187Z,495.00
2019-05-23T06:34:16.586Z,495.00
2019-05-23T06:35:15.483Z,495.00
2019-05-23T06:36:15.471Z,495.00
2019-05-23T06:37:15.464Z,495.00
2019-05-23T06:38:15.503Z,495.00
2019-05-23T06:39:15.442Z,495.00
2019-05-23T06:40:15.432Z,495.00
2019-05-23T06:41:15.421Z,495.00
2019-05-23T06:42:15.410Z,495.00
2019-05-23T06:43:15.409Z,495.00
2019-05-23T06:44:15.488Z,495.00
2019-05-23T06:45:15.378Z,495.00
2019-05-23T06:46:15.367Z,500.62
2019-05-23T06:47:15.360Z,500.62
2019-05-23T06:48:15.348Z,500.62
2019-05-23T06:49:15.339Z,506.25
2019-05-23T06:50:15.524Z,506.25
2019-05-23T06:51:15.314Z,506.25
2019-05-23T06:52:15.306Z,506.25
2019-05-23T06:53:15.304Z,506.25
2019-05-23T06:54:15.282Z,500.62
2019-05-23T06:56:15.365Z,483.75
2019-05-23T06:57:15.254Z,472.50
2019-05-23T06:58:15.241Z,461.25
2019-05-23T06:59:15.232Z,455.62
2019-05-23T07:00:15.222Z,450.00
2019-05-23T07:01:15.211Z,450.00
2019-05-23T07:02:15.251Z,450.00
2019-05-23T07:03:15.192Z,461.25
2019-05-23T07:04:15.179Z,461.25
2019-05-23T07:05:15.171Z,461.25
2019-05-23T07:06:15.161Z,466.87
2019-05-23T07:07:15.150Z,466.87
2019-05-23T07:09:16.328Z,461.25
2019-05-23T07:10:15.117Z,450.00
2019-05-23T07:11:15.108Z,438.75
2019-05-23T07:12:15.100Z,421.87
2019-05-23T07:13:15.088Z,416.25
2019-05-23T07:14:15.077Z,410.62
2019-05-23T07:15:15.167Z,410.62
2019-05-23T07:16:15.055Z,410.62
2019-05-23T07:17:15.043Z,405.00
2019-05-23T07:18:15.036Z,399.37
2019-05-23T07:19:15.024Z,399.37
2019-05-23T07:20:15.015Z,393.75
2019-05-23T07:22:18.394Z,382.50
2019-05-23T07:23:14.987Z,382.50
2019-05-23T07:24:14.972Z,376.87
2019-05-23T07:25:14.961Z,376.87
2019-05-23T07:26:14.952Z,376.87
2019-05-23T07:27:15.340Z,371.25
2019-05-23T07:28:15.251Z,371.25
2019-05-23T07:29:14.922Z,371.25
2019-05-23T07:30:14.922Z,376.87
2019-05-23T07:31:14.900Z,376.87
2019-05-23T07:32:14.913Z,376.87
2019-05-23T07:33:14.931Z,382.50
2019-05-23T07:34:14.868Z,393.75
2019-05-23T07:35:14.857Z,399.37
2019-05-23T07:36:14.849Z,410.62
2019-05-23T07:37:14.837Z,421.87
2019-05-23T07:38:14.827Z,433.12
2019-05-23T07:39:14.917Z,438.75
2019-05-23T07:40:14.806Z,444.37
2019-05-23T07:41:14.805Z,450.00
2019-05-23T07:42:14.787Z,450.00
2019-05-23T07:43:14.778Z,450.00
2019-05-23T07:44:14.779Z,450.00
2019-05-23T07:45:14.857Z,450.00
2019-05-23T07:46:14.744Z,444.37
2019-05-23T07:47:14.750Z,438.75
2019-05-23T07:48:14.741Z,438.75
2019-05-23T07:49:14.718Z,433.12
2019-05-23T07:50:14.718Z,433.12
2019-05-23T07:51:14.846Z,433.12
2019-05-23T07:52:14.695Z,433.12
2019-05-23T07:53:14.672Z,427.50
2019-05-23T07:54:14.704Z,421.87
2019-05-23T07:55:14.653Z,421.87
2019-05-23T07:56:14.648Z,416.25
2019-05-23T07:57:14.731Z,416.25
2019-05-23T07:58:14.618Z,416.25
2019-05-23T07:59:14.609Z,416.25
2019-05-23T08:00:14.599Z,416.25
2019-05-23T08:01:14.597Z,410.62
2019-05-23T08:02:14.580Z,410.62
2019-05-23T08:03:14.677Z,405.00
2019-05-23T08:04:21.325Z,405.00
2019-05-23T08:05:15.665Z,399.37
2019-05-23T08:06:14.536Z,399.37
2019-05-23T08:07:14.527Z,393.75
2019-05-23T08:08:14.541Z,393.75
2019-05-23T08:09:14.654Z,399.37
2019-05-23T08:10:30.923Z,399.37
2019-05-23T08:11:39.299Z,405.00
2019-05-23T08:12:39.288Z,416.25
2019-05-23T08:13:39.277Z,427.50
2019-05-23T08:14:39.390Z,427.50
2019-05-23T08:15:39.257Z,427.50
2019-05-23T08:16:39.247Z,427.50
2019-05-23T08:17:39.252Z,421.87
2019-05-23T08:18:39.235Z,421.87
2019-05-23T08:19:48.962Z,416.25
2019-05-23T08:21:04.118Z,405.00
2019-05-23T08:22:04.109Z,405.00
2019-05-23T08:23:04.097Z,399.37
2019-05-23T08:24:04.088Z,399.37
2019-05-23T08:25:04.079Z,393.75
2019-05-23T08:26:04.217Z,393.75
2019-05-23T08:27:04.057Z,388.12
2019-05-23T08:28:04.046Z,388.12
2019-05-23T08:29:24.767Z,388.12
2019-05-23T08:30:05.124Z,388.12
2019-05-23T08:31:04.014Z,388.12
2019-05-23T08:32:04.056Z,388.12
2019-05-23T08:33:04.002Z,388.12
2019-05-23T08:34:03.985Z,388.12
2019-05-23T08:35:03.979Z,382.50
2019-05-23T08:36:03.964Z,382.50
2019-05-23T08:37:03.956Z,376.87
2019-05-23T08:38:03.994Z,376.87
2019-05-23T08:39:03.937Z,371.25
2019-05-23T08:40:03.925Z,365.62
2019-05-23T08:41:03.917Z,365.62
2019-05-23T08:42:03.912Z,360.00
2019-05-23T08:43:03.892Z,354.37
2019-05-23T08:44:04.661Z,354.37
2019-05-23T08:45:03.877Z,348.75
2019-05-23T08:46:03.860Z,343.12
2019-05-23T08:47:03.852Z,337.50
2019-05-23T08:48:03.841Z,337.50
2019-05-23T08:49:03.835Z,337.50
2019-05-23T08:50:03.922Z,331.87
2019-05-23T08:51:03.846Z,326.25
2019-05-23T08:52:03.801Z,326.25
2019-05-23T08:53:03.790Z,320.62
2019-05-23T08:54:03.787Z,315.00
2019-05-23T08:55:03.780Z,315.00
2019-05-23T08:56:17.463Z,309.37
2019-05-23T08:57:04.846Z,303.75
2019-05-23T08:58:03.743Z,303.75
2019-05-23T08:59:03.730Z,298.12
2019-05-23T09:00:03.721Z,298.12
2019-05-23T09:01:03.715Z,292.50
2019-05-23T09:02:03.749Z,292.50
2019-05-23T09:03:03.696Z,286.87
2019-05-23T09:04:03.679Z,286.87
2019-05-23T09:05:06.191Z,281.25
2019-05-23T09:06:03.658Z,281.25
2019-05-23T09:07:03.648Z,275.62
2019-05-23T09:08:03.740Z,275.62
2019-05-23T09:09:03.636Z,270.00
2019-05-23T09:10:03.616Z,270.00
2019-05-23T09:11:03.664Z,264.37
2019-05-23T09:12:03.614Z,258.75
2019-05-23T09:13:03.602Z,258.75
2019-05-23T09:15:03.725Z,253.12
2019-05-23T09:16:03.665Z,247.50
2019-05-23T09:17:03.553Z,247.50
2019-05-23T09:18:03.724Z,241.87
2019-05-23T09:19:03.526Z,241.87
2019-05-23T09:20:03.517Z,236.25
2019-05-23T09:21:03.557Z,236.25
2019-05-23T09:22:03.494Z,230.62
2019-05-23T09:23:03.485Z,230.62
2019-05-23T09:24:03.479Z,225.00
2019-05-23T09:25:03.465Z,225.00
2019-05-23T09:26:03.455Z,225.00
2019-05-23T09:28:03.531Z,225.00
2019-05-23T09:29:03.425Z,219.37
2019-05-23T09:30:03.415Z,219.37
2019-05-23T09:31:03.409Z,219.37
2019-05-23T09:32:03.393Z,219.37
2019-05-23T09:33:03.387Z,219.37
2019-05-23T09:34:03.522Z,225.00
2019-05-23T09:35:19.739Z,225.00
2019-05-23T09:36:04.444Z,225.00
2019-05-23T09:37:03.341Z,225.00
2019-05-23T09:38:03.335Z,225.00
2019-05-23T09:39:03.574Z,230.62
2019-05-23T09:40:03.315Z,230.62
2019-05-23T09:41:03.303Z,230.62
2019-05-23T09:42:03.289Z,230.62
2019-05-23T09:43:03.294Z,230.62
2019-05-23T09:44:03.274Z,230.62
2019-05-23T09:45:03.306Z,230.62
2019-05-23T09:46:03.243Z,230.62
2019-05-23T09:47:03.239Z,225.00
2019-05-23T09:48:03.250Z,225.00
2019-05-23T09:49:03.235Z,225.00
2019-05-23T09:50:03.214Z,225.00
2019-05-23T09:51:03.247Z,225.00
2019-05-23T09:52:03.424Z,225.00
2019-05-23T09:53:03.172Z,225.00
2019-05-23T09:54:03.173Z,225.00
2019-05-23T09:55:03.155Z,230.62
2019-05-23T09:56:03.164Z,230.62
2019-05-23T09:57:03.287Z,230.62
2019-05-23T09:58:03.128Z,225.00
2019-05-23T09:59:03.109Z,225.00
2019-05-23T10:00:03.135Z,225.00
2019-05-23T10:01:03.089Z,225.00
2019-05-23T10:02:03.171Z,225.00
2019-05-23T10:03:03.127Z,225.00
2019-05-23T10:04:03.066Z,225.00
2019-05-23T10:05:03.073Z,225.00
2019-05-23T10:06:03.036Z,230.62
2019-05-23T10:07:03.025Z,230.62
2019-05-23T10:08:03.019Z,230.62
2019-05-23T10:09:03.058Z,236.25
2019-05-23T10:10:02.994Z,236.25
2019-05-23T10:11:02.986Z,236.25
2019-05-23T10:12:02.972Z,241.87
2019-05-23T10:13:02.962Z,241.87
2019-05-23T10:14:02.958Z,241.87
2019-05-23T10:15:03.091Z,241.87
2019-05-23T10:16:03.221Z,241.87
2019-05-23T10:17:02.918Z,241.87
2019-05-23T10:18:02.907Z,236.25
2019-05-23T10:19:02.897Z,236.25
2019-05-23T10:20:02.885Z,236.25
2019-05-23T10:21:02.935Z,230.62
2019-05-23T10:22:02.865Z,230.62
2019-05-23T10:23:02.852Z,225.00
2019-05-23T10:24:02.855Z,225.00
2019-05-23T10:25:02.836Z,219.37
2019-05-23T10:26:02.834Z,213.75
2019-05-23T10:27:02.863Z,213.75
2019-05-23T10:28:02.801Z,208.12
2019-05-23T10:29:02.790Z,202.50
2019-05-23T10:30:02.791Z,196.87
2019-05-23T10:31:02.771Z,196.87
2019-05-23T10:32:02.759Z,196.87
2019-05-23T10:33:10.476Z,191.25
2019-05-23T10:34:27.560Z,191.25
2019-05-23T10:35:27.540Z,185.62
2019-05-23T10:36:27.529Z,185.62
2019-05-23T10:37:27.520Z,185.62
2019-05-23T10:38:29.375Z,185.62
2019-05-23T10:39:27.498Z,185.62
2019-05-23T10:40:27.486Z,185.62
2019-05-23T10:41:27.476Z,185.62
2019-05-23T10:42:27.470Z,185.62
2019-05-23T10:43:27.453Z,185.62
2019-05-23T10:44:27.497Z,185.62
2019-05-23T10:45:27.432Z,185.62
2019-05-23T10:46:27.422Z,185.62
2019-05-23T10:47:27.413Z,185.62
2019-05-23T10:48:27.409Z,191.25
2019-05-23T10:49:27.393Z,191.25
2019-05-23T10:50:41.979Z,185.62
2019-05-23T10:51:52.183Z,185.62
2019-05-23T10:52:52.178Z,185.62
2019-05-23T10:53:52.166Z,180.00
2019-05-23T10:54:52.154Z,180.00
2019-05-23T10:55:52.189Z,174.37
2019-05-23T10:56:52.129Z,174.37
2019-05-23T10:57:52.115Z,174.37
2019-05-23T10:58:52.104Z,168.75
2019-05-23T10:59:52.093Z,168.75
2019-05-23T11:00:52.082Z,168.75
2019-05-23T11:01:52.127Z,163.12
2019-05-23T11:02:52.061Z,163.12
2019-05-23T11:03:52.052Z,163.12
2019-05-23T11:04:52.216Z,163.12
2019-05-23T11:05:52.029Z,163.12
2019-05-23T11:06:52.018Z,163.12
2019-05-23T11:07:52.158Z,163.12
2019-05-23T11:08:52.000Z,163.12
2019-05-23T11:09:51.988Z,163.12
2019-05-23T11:10:51.981Z,163.12
2019-05-23T11:11:51.970Z,163.12
2019-05-23T11:12:51.956Z,163.12
2019-05-23T11:13:51.998Z,163.12
2019-05-23T11:14:51.933Z,163.12
2019-05-23T11:15:51.924Z,163.12
2019-05-23T11:16:51.917Z,163.12
2019-05-23T11:17:53.761Z,163.12
2019-05-23T11:18:51.889Z,163.12
2019-05-23T11:19:51.935Z,157.50
2019-05-23T11:20:51.868Z,157.50
2019-05-23T11:21:51.857Z,157.50
2019-05-23T11:22:51.847Z,157.50
2019-05-23T11:23:51.835Z,157.50
2019-05-23T11:24:51.826Z,157.50
2019-05-23T11:25:52.034Z,151.87
2019-05-23T11:26:51.806Z,151.87
2019-05-23T11:27:51.800Z,151.87
2019-05-23T11:28:51.784Z,151.87
2019-05-23T11:29:51.771Z,151.87
2019-05-23T11:30:52.314Z,151.87
2019-05-23T11:31:51.755Z,151.87
2019-05-23T11:32:51.761Z,151.87
2019-05-23T11:33:51.731Z,151.87
2019-05-23T11:34:51.720Z,151.87
2019-05-23T11:35:51.713Z,151.87
2019-05-23T11:36:51.749Z,151.87
2019-05-23T11:37:51.691Z,151.87
2019-05-23T11:38:51.679Z,157.50
2019-05-23T11:39:51.762Z,157.50
2019-05-23T11:40:51.658Z,157.50
2019-05-23T11:41:51.653Z,157.50
2019-05-23T11:42:52.793Z,163.12
2019-05-23T11:43:51.629Z,163.12
2019-05-23T11:44:51.635Z,163.12
2019-05-23T11:45:51.608Z,168.75
2019-05-23T11:46:51.739Z,168.75
2019-05-23T11:47:51.708Z,168.75
2019-05-23T11:48:51.974Z,168.75
2019-05-23T11:49:51.563Z,174.37
2019-05-23T11:50:51.556Z,174.37
2019-05-23T11:51:51.544Z,174.37
2019-05-23T11:52:51.533Z,174.37
2019-05-23T11:54:06.885Z,180.00
2019-05-23T11:54:52.661Z,180.00
2019-05-23T11:55:54.455Z,180.00
2019-05-23T11:56:51.493Z,180.00
2019-05-23T11:57:51.485Z,180.00
2019-05-23T11:58:51.572Z,180.00
2019-05-23T11:59:51.483Z,180.00
2019-05-23T12:00:51.596Z,174.37
2019-05-23T12:01:51.442Z,174.37
2019-05-23T12:02:51.442Z,174.37
2019-05-23T12:03:51.420Z,168.75
2019-05-23T12:04:51.416Z,168.75
2019-05-23T12:05:51.399Z,168.75
2019-05-23T12:06:55.883Z,168.75
2019-05-23T12:07:51.397Z,168.75
2019-05-23T12:08:51.371Z,168.75
2019-05-23T12:09:51.359Z,168.75
2019-05-23T12:10:51.349Z,168.75
2019-05-23T12:11:51.363Z,168.75
2019-05-23T12:12:51.382Z,168.75
2019-05-23T12:13:51.320Z,163.12
2019-05-23T12:14:51.311Z,163.12
2019-05-23T12:15:51.299Z,157.50
2019-05-23T12:16:51.290Z,157.50
2019-05-23T12:17:51.340Z,151.87
2019-05-23T12:18:51.358Z,151.87
2019-05-23T12:19:51.571Z,151.87
2019-05-23T12:20:51.246Z,151.87
2019-05-23T12:21:51.238Z,151.87
2019-05-23T12:22:51.247Z,151.87
2019-05-23T12:23:51.216Z,151.87
2019-05-23T12:24:51.454Z,151.87
2019-05-23T12:25:51.200Z,151.87
2019-05-23T12:26:51.182Z,146.25
2019-05-23T12:27:51.183Z,146.25
2019-05-23T12:28:51.165Z,146.25
2019-05-23T12:29:51.155Z,146.25
2019-05-23T12:30:51.244Z,146.25
2019-05-23T12:31:51.136Z,140.62
2019-05-23T12:32:51.125Z,140.62
2019-05-23T12:33:51.117Z,140.62
2019-05-23T12:35:08.513Z,135.00
2019-05-23T12:36:15.956Z,135.00
2019-05-23T12:37:19.944Z,129.37
2019-05-23T12:38:15.934Z,129.37
2019-05-23T12:39:15.925Z,123.75
2019-05-23T12:40:15.911Z,123.75
2019-05-23T12:41:16.052Z,118.12
2019-05-23T12:42:15.893Z,112.50
2019-05-23T12:43:15.881Z,112.50
2019-05-23T12:44:17.806Z,106.87
2019-05-23T12:45:15.871Z,101.25
2019-05-23T12:46:15.858Z,101.25
2019-05-23T12:47:15.941Z,95.62
2019-05-23T12:48:15.841Z,95.62